Time;durP1;ratioP1;P1;durP2;ratioP2;P2;SDS_P1;SDS_P2;PMS_P1;PMS_P2;Temp;Humidity;BMP_temperature;BMP_pressure;BME280_temperature;BME280_humidity;BME280_pressure;Samples;Min_cycle;Max_cycle;Signal;HPM_P1;HPM_P2
2022/04/02 00:02:25;;;;;;;;;;;;;;;1.37;53.25;99005.82;2107711;83;20140;-81
2022/04/02 00:05:27;;;;;;;;;;;;;;;1.35;53.64;98996.80;2091800;84;20198;-80
2022/04/02 00:08:29;;;;;;;;;;;;;;;1.33;53.50;99001.35;2092825;84;20145;-80
2022/04/02 00:11:30;;;;;;;;;;;;;;;1.32;53.87;99003.60;2090846;84;20515;-79
2022/04/02 00:14:31;;;;;;;;;;;;;;;1.29;53.72;98998.16;2089012;84;20101;-79
2022/04/02 00:17:33;;;;;;;;;;;;;;;1.28;54.00;98999.12;2084476;84;20670;-80
2022/04/02 00:20:34;;;;;;;;;;;;;;;1.28;54.07;98995.70;2128508;83;20459;-81
2022/04/02 00:23:43;;;;;;;;;;;;;;;1.24;54.12;98987.31;2127261;82;20189;-82
2022/04/02 00:26:44;;;;;;;;;;;;;;;1.22;54.25;98994.45;2129036;82;20177;-81
2022/04/02 00:29:44;;;;;;;;;;;;;;;1.21;54.67;98986.27;2127993;82;20193;-79
2022/04/02 00:32:46;;;;;;;;;;;;;;;1.20;54.74;98983.78;2098250;83;20179;-81
2022/04/02 00:35:47;;;;;;;;;;;;;;;1.18;54.57;98992.23;2103408;83;20132;-79
2022/04/02 00:38:48;;;;;;;;;;;;;;;1.17;54.80;98988.80;2100130;83;20145;-82
2022/04/02 00:41:49;;;;;;;;;;;;;;;1.14;54.16;98987.76;2097795;83;20132;-77
2022/04/02 00:44:50;;;;;;;;;;;;;;;1.11;54.32;98988.84;2092157;83;20577;-79
2022/04/02 00:47:51;;;;;;;;;;;;;;;1.09;54.66;98995.17;2091970;83;20156;-79
2022/04/02 00:50:53;;;;;;;;;;;;;;;1.07;54.48;98992.70;2101258;83;20436;-81
2022/04/02 00:53:54;;;;;;;;;;;;;;;1.06;54.80;98987.59;2094176;83;20167;-80
2022/04/02 00:56:55;;;;;;;;;;;;;;;1.03;54.84;98990.48;2093533;83;20143;-81
2022/04/02 00:59:56;;;;;;;;;;;;;;;1.00;54.60;98992.88;2120080;83;20132;-80
2022/04/02 01:02:57;;;;;;;;;;;;;;;0.99;54.61;98995.64;2114283;83;20161;-78
2022/04/02 01:05:58;;;;;;;;;;;;;;;0.98;54.58;98996.09;2111051;83;20166;-80
2022/04/02 01:09:00;;;;;;;;;;;;;;;0.98;54.86;99000.50;2084317;83;20426;-80
2022/04/02 01:12:04;;;;;;;;;;;;;;;0.94;54.68;98996.03;2118658;83;20146;-82
2022/04/02 01:15:07;;;;;;;;;;;;;;;0.95;54.56;98994.23;2111737;83;20125;-79
2022/04/02 01:18:10;;;;;;;;;;;;;;;0.94;54.92;98999.12;2113524;83;20677;-80
2022/04/02 01:21:11;;;;;;;;;;;;;;;0.94;54.92;98997.33;2119113;83;20139;-80
2022/04/02 01:24:14;;;;;;;;;;;;;;;0.92;54.97;98998.42;2115164;83;20462;-79
2022/04/02 01:27:17;;;;;;;;;;;;;;;0.92;55.17;98994.02;2110342;83;20190;-81
2022/04/02 01:30:19;;;;;;;;;;;;;;;0.91;54.91;99001.52;2116845;83;20183;-78
2022/04/02 01:33:20;;;;;;;;;;;;;;;0.91;54.71;98996.78;2109540;83;20203;-81
2022/04/02 01:36:22;;;;;;;;;;;;;;;0.87;55.25;99001.42;2117978;83;20480;-81
2022/04/02 01:39:24;;;;;;;;;;;;;;;0.87;55.19;98990.52;2116204;83;20659;-82
2022/04/02 01:42:26;;;;;;;;;;;;;;;0.86;54.88;99003.21;2095840;83;20155;-81
2022/04/02 01:45:41;;;;;;;;;;;;;;;0.85;55.01;99004.17;2112781;83;20139;-81
2022/04/02 01:48:42;;;;;;;;;;;;;;;0.84;55.28;99006.42;2108804;83;20128;-80
2022/04/02 01:51:45;;;;;;;;;;;;;;;0.84;55.08;99004.30;2114316;83;20150;-80
2022/04/02 01:54:49;;;;;;;;;;;;;;;0.80;55.12;99005.53;2114426;83;20167;-80
2022/04/02 01:57:51;;;;;;;;;;;;;;;0.78;54.94;98997.81;2116939;83;20142;-79
2022/04/02 02:00:55;;;;;;;;;;;;;;;0.78;55.20;99006.13;2115043;83;20136;-80
2022/04/02 02:03:56;;;;;;;;;;;;;;;0.78;55.44;99013.48;2120683;83;20459;-79
2022/04/02 02:07:02;;;;;;;;;;;;;;;0.77;55.33;99013.63;2116515;83;20160;-80
2022/04/02 02:10:04;;;;;;;;;;;;;;;0.74;55.20;99015.20;2118262;83;20584;-82
2022/04/02 02:13:07;;;;;;;;;;;;;;;0.72;55.48;99012.70;2109782;83;20148;-81
2022/04/02 02:16:13;;;;;;;;;;;;;;;0.70;55.29;99018.53;2112501;83;20138;-79
2022/04/02 02:19:14;;;;;;;;;;;;;;;0.71;55.65;99019.38;2114102;83;20478;-80
2022/04/02 02:22:15;;;;;;;;;;;;;;;0.71;55.68;99021.51;2116768;83;20176;-79
2022/04/02 02:25:17;;;;;;;;;;;;;;;0.70;55.62;99021.14;2114979;83;20122;-81
2022/04/02 02:28:19;;;;;;;;;;;;;;;0.68;55.78;99017.86;2122190;83;20238;-79
2022/04/02 02:31:20;;;;;;;;;;;;;;;0.66;55.53;99020.58;2117591;83;20125;-80
2022/04/02 02:37:42;;;;;;;;;;;;;;;0.63;55.91;99031.77;2116442;83;20171;-80
2022/04/02 02:40:44;;;;;;;;;;;;;;;0.60;55.89;99032.86;2120597;83;20143;-83
2022/04/02 02:43:47;;;;;;;;;;;;;;;0.59;55.97;99028.61;2123868;83;20190;-80
2022/04/02 02:46:50;;;;;;;;;;;;;;;0.55;56.14;99032.90;2121087;83;20128;-79
2022/04/02 02:49:53;;;;;;;;;;;;;;;0.54;56.44;99028.64;2119142;83;20121;-80
2022/04/02 02:52:56;;;;;;;;;;;;;;;0.51;56.58;99030.18;2117321;83;20428;-81
2022/04/02 02:55:57;;;;;;;;;;;;;;;0.48;56.75;99037.81;2119288;83;20131;-81
2022/04/02 02:58:59;;;;;;;;;;;;;;;0.41;56.79;99040.58;2121547;83;20140;-80
2022/04/02 03:02:00;;;;;;;;;;;;;;;0.34;57.07;99040.73;2119487;83;20140;-81
2022/04/02 03:05:01;;;;;;;;;;;;;;;0.29;57.35;99045.52;2101932;83;20197;-80
2022/04/02 03:08:04;;;;;;;;;;;;;;;0.23;57.46;99044.25;2127503;83;20180;-80
2022/04/02 03:11:10;;;;;;;;;;;;;;;0.18;57.58;99043.80;2116933;83;20154;-78
2022/04/02 03:14:11;;;;;;;;;;;;;;;0.12;57.90;99060.78;2122789;83;20142;-81
2022/04/02 03:17:12;;;;;;;;;;;;;;;0.09;58.13;99061.52;2123773;83;20130;-79
2022/04/02 03:20:15;;;;;;;;;;;;;;;0.06;58.31;99064.35;2121358;83;20150;-78
2022/04/02 03:23:16;;;;;;;;;;;;;;;0.04;58.32;99067.59;2119363;83;20156;-81
2022/04/02 03:26:17;;;;;;;;;;;;;;;-0.01;58.56;99072.69;2109392;83;20479;-82
2022/04/02 03:29:18;;;;;;;;;;;;;;;-0.02;58.53;99068.91;2107362;83;20125;-79
2022/04/02 03:32:19;;;;;;;;;;;;;;;-0.04;58.85;99074.24;2107279;83;20499;-80
2022/04/02 03:35:21;;;;;;;;;;;;;;;-0.10;58.83;99074.75;2088494;83;20145;-79
2022/04/02 03:38:24;;;;;;;;;;;;;;;-0.13;58.97;99078.91;2089790;84;20215;-79
2022/04/02 03:41:26;;;;;;;;;;;;;;;-0.14;59.03;99077.27;2091256;84;20145;-79
2022/04/02 03:44:27;;;;;;;;;;;;;;;-0.14;59.42;99076.41;2089065;84;20140;-81
2022/04/02 03:47:29;;;;;;;;;;;;;;;-0.18;60.80;99077.14;2090911;84;20657;-80
2022/04/02 03:50:30;;;;;;;;;;;;;;;-0.26;61.35;99079.05;2091097;84;20157;-79
2022/04/02 03:53:32;;;;;;;;;;;;;;;-0.31;61.65;99087.74;2093741;84;20545;-79
2022/04/02 03:56:35;;;;;;;;;;;;;;;-0.40;62.98;99093.67;2089632;84;20130;-80
2022/04/02 03:59:39;;;;;;;;;;;;;;;-0.48;63.22;99087.78;2087653;83;20129;-78
2022/04/02 04:02:41;;;;;;;;;;;;;;;-0.50;63.86;99094.06;2109426;83;20125;-80
2022/04/02 04:05:44;;;;;;;;;;;;;;;-0.60;64.04;99091.34;2131964;82;20130;-79
2022/04/02 04:08:47;;;;;;;;;;;;;;;-0.65;63.81;99096.08;2116242;83;20557;-79
2022/04/02 04:11:49;;;;;;;;;;;;;;;-0.67;64.89;99099.78;2086916;83;20293;-81
2022/04/02 04:14:53;;;;;;;;;;;;;;;-0.74;66.06;99096.33;2113924;83;20163;-79
2022/04/02 04:17:56;;;;;;;;;;;;;;;-0.79;65.21;99108.91;2115388;83;20137;-79
2022/04/02 04:20:57;;;;;;;;;;;;;;;-0.84;66.19;99105.00;2117546;83;20168;-80
2022/04/02 04:24:03;;;;;;;;;;;;;;;-0.91;66.59;99106.75;2106134;83;20150;-81
2022/04/02 04:27:04;;;;;;;;;;;;;;;-0.95;66.53;99104.52;2115386;83;20140;-81
2022/04/02 04:30:09;;;;;;;;;;;;;;;-0.98;66.43;99107.36;2085969;83;22054;-81
2022/04/02 04:33:10;;;;;;;;;;;;;;;-1.01;66.93;99099.79;2116290;83;20159;-79
2022/04/02 04:36:12;;;;;;;;;;;;;;;-1.05;67.25;99113.49;2116482;83;20142;-79
2022/04/02 04:39:13;;;;;;;;;;;;;;;-1.11;68.39;99107.46;2122920;83;20188;-77
2022/04/02 04:42:16;;;;;;;;;;;;;;;-1.17;67.83;99114.44;2122433;83;20170;-80
2022/04/02 04:45:17;;;;;;;;;;;;;;;-1.19;68.11;99115.02;2120309;83;20530;-79
2022/04/02 04:48:20;;;;;;;;;;;;;;;-1.19;67.77;99115.02;2118540;83;20456;-79
2022/04/02 04:51:28;;;;;;;;;;;;;;;-1.21;67.93;99124.72;2119985;83;20460;-79
2022/04/02 04:54:31;;;;;;;;;;;;;;;-1.25;68.80;99122.00;2118026;83;20127;-79
2022/04/02 04:57:34;;;;;;;;;;;;;;;-1.25;68.17;99124.13;2114191;83;20184;-81
2022/04/02 05:00:42;;;;;;;;;;;;;;;-1.24;68.38;99119.30;2118203;83;20158;-79
2022/04/02 05:03:44;;;;;;;;;;;;;;;-1.22;68.49;99130.40;2115723;83;20627;-82
2022/04/02 05:06:49;;;;;;;;;;;;;;;-1.23;68.48;99131.83;2116158;83;20581;-80
2022/04/02 05:09:53;;;;;;;;;;;;;;;-1.26;68.74;99135.97;2118353;83;20164;-82
2022/04/02 05:12:55;;;;;;;;;;;;;;;-1.26;68.54;99137.27;2120692;83;20171;-78
2022/04/02 05:15:58;;;;;;;;;;;;;;;-1.25;68.46;99133.71;2116386;83;20208;-81
2022/04/02 05:19:00;;;;;;;;;;;;;;;-1.25;68.93;99131.11;2117733;83;20187;-79
2022/04/02 05:22:02;;;;;;;;;;;;;;;-1.24;69.03;99128.86;2101446;83;20497;-80
2022/04/02 05:25:06;;;;;;;;;;;;;;;-1.20;68.75;99135.50;2113020;83;20908;-80
2022/04/02 05:28:09;;;;;;;;;;;;;;;-1.15;68.88;99133.39;2106335;83;20136;-79
2022/04/02 05:31:11;;;;;;;;;;;;;;;-1.13;68.66;99136.68;2103278;83;20131;-80
2022/04/02 05:34:12;;;;;;;;;;;;;;;-1.11;68.36;99141.31;2109539;83;20153;-80
2022/04/02 05:37:13;;;;;;;;;;;;;;;-1.09;68.32;99137.30;2107385;83;20160;-79
2022/04/02 05:40:15;;;;;;;;;;;;;;;-1.13;68.72;99137.98;2105490;83;20166;-81
2022/04/02 05:43:16;;;;;;;;;;;;;;;-1.14;68.94;99135.86;2077671;83;20184;-80
2022/04/02 05:46:17;;;;;;;;;;;;;;;-1.16;69.39;99137.73;2106261;83;20186;-79
2022/04/02 05:49:19;;;;;;;;;;;;;;;-1.18;69.09;99144.03;2108671;83;20463;-81
2022/04/02 05:52:20;;;;;;;;;;;;;;;-1.17;69.61;99145.69;2113883;83;20165;-81
2022/04/02 05:55:21;;;;;;;;;;;;;;;-1.19;69.66;99145.78;2102889;83;20183;-78
2022/04/02 05:58:23;;;;;;;;;;;;;;;-1.19;69.73;99141.88;2108972;83;20181;-80
2022/04/02 06:01:24;;;;;;;;;;;;;;;-1.19;69.70;99143.66;2110148;83;20160;-81
2022/04/02 06:04:28;;;;;;;;;;;;;;;-1.18;69.50;99136.22;2112070;83;20491;-81
2022/04/02 06:07:28;;;;;;;;;;;;;;;-1.16;69.33;99150.75;2108951;83;20123;-79
2022/04/02 06:10:31;;;;;;;;;;;;;;;-1.17;69.15;99147.80;2107144;83;20183;-80
2022/04/02 06:13:34;;;;;;;;;;;;;;;-1.14;69.07;99153.26;2104628;83;20499;-81
2022/04/02 06:16:35;;;;;;;;;;;;;;;-1.10;68.89;99157.27;2108636;83;20153;-84
2022/04/02 06:19:36;;;;;;;;;;;;;;;-1.08;68.46;99158.47;2105875;83;20171;-84
2022/04/02 06:22:37;;;;;;;;;;;;;;;-1.04;68.33;99169.86;2105000;83;21026;-85
2022/04/02 06:25:40;;;;;;;;;;;;;;;-1.01;68.27;99157.08;2109733;83;20265;-83
2022/04/02 06:28:43;;;;;;;;;;;;;;;-0.94;67.80;99166.89;2112318;83;20480;-83
2022/04/02 06:31:44;;;;;;;;;;;;;;;-0.87;67.56;99174.23;2109769;83;20143;-83
2022/04/02 06:34:45;;;;;;;;;;;;;;;-0.81;67.29;99168.09;2105169;83;20151;-82
2022/04/02 06:37:51;;;;;;;;;;;;;;;-0.73;67.10;99173.55;2110801;83;20508;-84
2022/04/02 06:40:52;;;;;;;;;;;;;;;-0.65;67.29;99171.63;2112740;83;20528;-83
2022/04/02 06:43:53;;;;;;;;;;;;;;;-0.55;67.52;99172.59;2113940;83;20148;-79
2022/04/02 06:46:56;;;;;;;;;;;;;;;-0.48;67.15;99171.63;2111111;83;20158;-80
2022/04/02 06:49:58;;;;;;;;;;;;;;;-0.42;66.95;99178.14;2106551;83;20744;-83
2022/04/02 06:52:59;;;;;;;;;;;;;;;-0.35;66.91;99178.03;2109843;83;20156;-82
2022/04/02 06:56:00;;;;;;;;;;;;;;;-0.30;66.83;99176.72;2111441;83;20980;-82
2022/04/02 06:59:01;;;;;;;;;;;;;;;-0.25;66.64;99175.06;2110601;83;20542;-83
2022/04/02 07:02:03;;;;;;;;;;;;;;;-0.18;66.13;99178.83;2108767;83;20134;-82
2022/04/02 07:05:05;;;;;;;;;;;;;;;-0.14;66.10;99176.35;2109750;83;20157;-80
2022/04/02 07:08:06;;;;;;;;;;;;;;;-0.07;66.15;99182.72;2109519;83;20156;-79
2022/04/02 07:11:07;;;;;;;;;;;;;;;-0.02;65.27;99184.49;2112552;83;20158;-80
2022/04/02 07:14:09;;;;;;;;;;;;;;;-0.01;65.01;99179.63;2109844;83;20184;-81
2022/04/02 07:17:13;;;;;;;;;;;;;;;0.03;64.53;99187.20;2113800;83;20137;-81
2022/04/02 07:20:17;;;;;;;;;;;;;;;0.02;61.45;99186.85;2106521;83;20133;-81
2022/04/02 07:23:19;;;;;;;;;;;;;;;0.07;62.94;99188.62;2107223;83;20154;-83
2022/04/02 07:26:21;;;;;;;;;;;;;;;0.14;60.66;99181.95;2112354;83;20160;-80
2022/04/02 07:29:24;;;;;;;;;;;;;;;0.18;60.93;99189.90;2115310;82;20500;-79
2022/04/02 07:32:26;;;;;;;;;;;;;;;0.22;59.62;99192.60;2116833;83;20184;-80
2022/04/02 07:35:43;;;;;;;;;;;;;;;0.20;57.76;99190.61;2115608;83;20134;-81
2022/04/02 07:39:00;;;;;;;;;;;;;;;0.25;57.85;99196.27;2111666;83;20474;-78
2022/04/02 07:42:23;;;;;;;;;;;;;;;0.39;59.50;99195.16;2119296;83;20576;-78
2022/04/02 07:45:28;;;;;;;;;;;;;;;0.52;57.44;99197.61;2115600;83;20186;-80
2022/04/02 07:48:30;;;;;;;;;;;;;;;0.64;57.40;99200.52;2113722;83;20145;-79
2022/04/02 07:51:31;;;;;;;;;;;;;;;0.79;57.20;99199.27;2115943;83;20441;-81
2022/04/02 07:54:37;;;;;;;;;;;;;;;0.87;56.27;99195.55;2117881;83;20138;-80
2022/04/02 07:57:46;;;;;;;;;;;;;;;0.98;56.18;99193.80;2117756;83;20154;-80
2022/04/02 08:00:51;;;;;;;;;;;;;;;1.06;54.75;99192.69;2087141;83;20443;-80
2022/04/02 08:03:52;;;;;;;;;;;;;;;1.15;55.77;99206.77;2127138;82;20131;-78
2022/04/02 08:06:54;;;;;;;;;;;;;;;1.24;56.97;99207.28;2096201;83;20139;-78
2022/04/02 08:09:59;;;;;;;;;;;;;;;1.33;55.92;99215.19;2134022;82;20134;-79
2022/04/02 08:13:01;;;;;;;;;;;;;;;1.28;55.78;99206.08;2093897;83;20441;-77
2022/04/02 08:16:02;;;;;;;;;;;;;;;1.22;55.00;99211.34;2100939;83;20167;-79
2022/04/02 08:19:04;;;;;;;;;;;;;;;1.18;56.70;99206.02;2135826;82;20423;-79
2022/04/02 08:22:05;;;;;;;;;;;;;;;1.21;56.10;99212.77;2119641;83;20156;-79
2022/04/02 08:25:08;;;;;;;;;;;;;;;1.20;55.45;99226.80;2108785;82;20140;-79
2022/04/02 08:28:15;;;;;;;;;;;;;;;1.29;56.45;99220.80;2145992;82;20147;-79
2022/04/02 08:31:37;;;;;;;;;;;;;;;1.31;57.00;99229.34;2144136;82;20168;-79
2022/04/02 08:34:54;;;;;;;;;;;;;;;1.39;57.46;99237.86;2147946;82;20180;-79
2022/04/02 08:38:19;;;;;;;;;;;;;;;1.44;56.51;99236.99;2149801;82;20176;-81
2022/04/02 08:41:41;;;;;;;;;;;;;;;1.38;56.55;99235.73;2146577;82;20132;-77
2022/04/02 08:45:09;;;;;;;;;;;;;;;1.42;57.55;99242.83;2148786;82;20138;-77
2022/04/02 08:48:14;;;;;;;;;;;;;;;1.54;58.37;99248.30;2143960;82;20179;-80
2022/04/02 08:51:18;;;;;;;;;;;;;;;1.57;57.81;99246.73;2148986;82;20135;-79
2022/04/02 08:54:27;;;;;;;;;;;;;;;1.61;58.26;99239.00;2153187;82;20132;-81
2022/04/02 08:57:32;;;;;;;;;;;;;;;1.68;57.95;99251.06;2148557;82;20467;-79
2022/04/02 09:00:36;;;;;;;;;;;;;;;1.62;57.23;99252.89;2148723;82;20156;-78
2022/04/02 09:03:47;;;;;;;;;;;;;;;1.69;58.42;99248.78;2151352;82;20184;-81
2022/04/02 09:07:13;;;;;;;;;;;;;;;1.97;57.57;99242.85;2149949;82;20137;-78
2022/04/02 09:10:29;;;;;;;;;;;;;;;2.11;58.23;99252.13;2150574;82;20139;-81
2022/04/02 09:13:59;;;;;;;;;;;;;;;2.37;56.05;99245.08;2149811;82;20391;-81
2022/04/02 09:17:22;;;;;;;;;;;;;;;2.61;55.83;99248.11;2149480;82;20163;-80
2022/04/02 09:20:36;;;;;;;;;;;;;;;2.75;55.88;99248.19;2148535;82;20160;-81
2022/04/02 09:23:50;;;;;;;;;;;;;;;3.00;55.08;99256.46;2149543;82;20130;-78
2022/04/02 09:27:09;;;;;;;;;;;;;;;3.21;55.01;99252.35;2148459;81;20140;-77
2022/04/02 09:30:32;;;;;;;;;;;;;;;3.26;53.36;99254.08;2140949;81;20152;-81
2022/04/02 09:33:56;;;;;;;;;;;;;;;3.15;53.97;99260.30;2144701;81;20215;-83
2022/04/02 09:37:34;;;;;;;;;;;;;;;3.17;55.00;99264.10;2145614;81;20209;-80
2022/04/02 09:40:45;;;;;;;;;;;;;;;3.21;53.06;99261.53;2142148;81;20175;-82
2022/04/02 09:43:56;;;;;;;;;;;;;;;3.08;53.18;99257.42;2144837;81;20141;-81
2022/04/02 09:47:21;;;;;;;;;;;;;;;3.14;53.15;99257.34;2128989;81;20136;-80
2022/04/02 09:50:24;;;;;;;;;;;;;;;3.13;53.85;99262.25;2143512;81;20132;-78
2022/04/02 09:53:29;;;;;;;;;;;;;;;3.24;54.01;99259.47;2145202;81;20137;-81
2022/04/02 09:56:35;;;;;;;;;;;;;;;3.26;53.92;99260.14;2145431;81;20160;-80
2022/04/02 09:59:40;;;;;;;;;;;;;;;3.09;53.23;99255.13;2109154;83;20147;-78
2022/04/02 10:03:03;;;;;;;;;;;;;;;3.08;53.09;99248.73;2122345;83;20493;-82
2022/04/02 10:06:17;;;;;;;;;;;;;;;3.07;51.94;99254.46;2100509;83;20155;-81
2022/04/02 10:09:20;;;;;;;;;;;;;;;3.06;53.18;99253.28;2119349;82;20128;-83
2022/04/02 10:12:24;;;;;;;;;;;;;;;3.09;53.32;99262.99;2127572;82;20163;-82
2022/04/02 10:15:25;;;;;;;;;;;;;;;3.20;54.28;99263.33;2126493;82;20160;-81
2022/04/02 10:18:27;;;;;;;;;;;;;;;3.26;53.10;99257.52;2112379;82;20135;-81
2022/04/02 10:21:32;;;;;;;;;;;;;;;3.23;52.77;99256.48;2101091;83;20156;-79
2022/04/02 10:24:40;;;;;;;;;;;;;;;3.34;53.73;99258.12;2111329;83;20140;-78
2022/04/02 10:27:43;;;;;;;;;;;;;;;3.42;52.93;99253.50;2098959;83;20151;-79
2022/04/02 10:30:46;;;;;;;;;;;;;;;3.40;52.84;99246.25;2140826;81;20119;-80
2022/04/02 10:33:49;;;;;;;;;;;;;;;3.40;53.37;99247.06;2136905;82;20157;-79
2022/04/02 10:37:05;;;;;;;;;;;;;;;3.46;52.84;99259.61;2110114;83;20142;-79
2022/04/02 10:40:09;;;;;;;;;;;;;;;3.51;52.74;99256.57;2087829;83;20219;-78
2022/04/02 10:43:13;;;;;;;;;;;;;;;3.61;52.57;99261.31;2118915;83;20200;-78
2022/04/02 10:46:19;;;;;;;;;;;;;;;3.72;52.64;99257.70;2119508;83;20171;-81
2022/04/02 10:49:26;;;;;;;;;;;;;;;3.76;51.08;99255.11;2115448;83;20189;-80
2022/04/02 10:52:27;;;;;;;;;;;;;;;3.93;52.26;99253.03;2115131;83;20132;-80
2022/04/02 10:55:29;;;;;;;;;;;;;;;4.14;51.89;99259.37;2117498;83;20125;-81
2022/04/02 10:58:34;;;;;;;;;;;;;;;4.30;52.35;99244.75;2115029;83;20163;-80
2022/04/02 11:01:43;;;;;;;;;;;;;;;4.38;50.95;99244.34;2117633;83;20226;-82
2022/04/02 11:05:00;;;;;;;;;;;;;;;4.48;51.51;99247.75;2118216;83;20147;-82
2022/04/02 11:08:11;;;;;;;;;;;;;;;4.46;49.68;99231.30;2119076;83;20144;-82
2022/04/02 11:11:18;;;;;;;;;;;;;;;4.42;50.94;99239.62;2115262;83;20142;-82
2022/04/02 11:14:21;;;;;;;;;;;;;;;4.38;50.16;99244.34;2120582;83;20570;-80
2022/04/02 11:17:36;;;;;;;;;;;;;;;4.51;50.73;99240.06;2083509;83;20472;-80
2022/04/02 11:20:38;;;;;;;;;;;;;;;4.62;49.79;99240.33;2122880;83;20127;-83
2022/04/02 11:23:50;;;;;;;;;;;;;;;4.71;49.72;99240.73;2117910;83;20145;-82
2022/04/02 11:26:53;;;;;;;;;;;;;;;4.89;49.06;99240.22;2116903;83;20112;-83
2022/04/02 11:30:00;;;;;;;;;;;;;;;5.04;49.12;99243.62;2109456;83;20144;-81
2022/04/02 11:33:05;;;;;;;;;;;;;;;4.95;47.52;99234.84;2104478;83;20132;-82
2022/04/02 11:36:09;;;;;;;;;;;;;;;5.03;48.68;99236.23;2082498;83;20117;-81
2022/04/02 11:39:12;;;;;;;;;;;;;;;5.22;49.16;99232.59;2082439;83;20142;-80
2022/04/02 11:42:14;;;;;;;;;;;;;;;5.29;48.06;99228.84;2103271;83;20449;-81
2022/04/02 11:45:20;;;;;;;;;;;;;;;5.32;48.11;99222.81;2111199;83;20159;-81
2022/04/02 11:48:23;;;;;;;;;;;;;;;5.36;47.17;99216.25;2107634;83;20526;-80
2022/04/02 11:51:33;;;;;;;;;;;;;;;5.37;48.28;99223.14;2107585;83;20127;-81
2022/04/02 11:54:42;;;;;;;;;;;;;;;5.47;48.73;99226.19;2106952;83;20167;-80
2022/04/02 11:58:05;;;;;;;;;;;;;;;5.37;47.85;99221.83;2093238;83;20152;-80
2022/04/02 12:01:08;;;;;;;;;;;;;;;5.31;47.03;99236.10;2113888;83;20153;-79
2022/04/02 12:04:14;;;;;;;;;;;;;;;5.26;46.27;99227.84;2110507;83;20160;-80
2022/04/02 12:07:17;;;;;;;;;;;;;;;5.31;47.51;99226.41;2107507;83;20195;-82
2022/04/02 12:10:26;;;;;;;;;;;;;;;5.45;48.07;99230.77;2108429;83;20210;-82
2022/04/02 12:13:27;;;;;;;;;;;;;;;5.55;48.25;99232.31;2105439;83;20302;-81
2022/04/02 12:16:29;;;;;;;;;;;;;;;5.55;47.68;99220.97;2110533;83;20246;-80
2022/04/02 12:19:42;;;;;;;;;;;;;;;5.53;47.31;99237.39;2109061;83;20163;-81
2022/04/02 12:22:46;;;;;;;;;;;;;;;5.44;46.41;99235.70;2110652;83;20155;-82
2022/04/02 12:25:55;;;;;;;;;;;;;;;5.37;45.86;99233.67;2116980;83;20487;-82
2022/04/02 12:29:01;;;;;;;;;;;;;;;5.43;46.26;99232.72;2123234;83;20142;-81
2022/04/02 12:32:03;;;;;;;;;;;;;;;5.51;46.45;99232.77;2127453;82;20147;-83
2022/04/02 12:35:10;;;;;;;;;;;;;;;5.66;46.90;99231.69;2123535;83;20281;-82
2022/04/02 12:38:29;;;;;;;;;;;;;;;5.81;46.70;99234.91;2126195;82;20130;-81
2022/04/02 12:41:31;;;;;;;;;;;;;;;5.92;45.63;99229.04;2123188;82;20145;-82
2022/04/02 12:44:32;;;;;;;;;;;;;;;5.94;44.96;99225.77;2119069;83;20148;-82
2022/04/02 12:47:34;;;;;;;;;;;;;;;5.89;45.74;99230.17;2129587;82;20210;-80
2022/04/02 12:50:37;;;;;;;;;;;;;;;5.88;45.08;99232.95;2124427;83;20168;-82
2022/04/02 12:53:40;;;;;;;;;;;;;;;5.88;45.33;99239.53;2124297;82;20134;-80
2022/04/02 12:56:42;;;;;;;;;;;;;;;5.91;44.82;99245.80;2123469;82;20134;-83
2022/04/02 12:59:46;;;;;;;;;;;;;;;5.87;43.87;99247.93;2121653;82;20142;-83
2022/04/02 13:02:49;;;;;;;;;;;;;;;5.77;44.27;99239.31;2127294;83;20148;-82
2022/04/02 13:05:52;;;;;;;;;;;;;;;5.72;43.66;99231.91;2124406;83;20174;-82
2022/04/02 13:09:03;;;;;;;;;;;;;;;5.69;43.08;99245.85;2124134;83;20544;-82
2022/04/02 13:12:08;;;;;;;;;;;;;;;5.68;43.84;99241.09;2127819;82;20163;-83
2022/04/02 13:15:09;;;;;;;;;;;;;;;5.70;43.39;99234.36;2123167;82;20617;-80
2022/04/02 13:21:33;;;;;;;;;;;;;;;5.89;44.24;99234.62;2125814;82;20156;-80
2022/04/02 13:24:40;;;;;;;;;;;;;;;6.04;42.16;99233.05;2127278;83;20126;-81
2022/04/02 13:28:05;;;;;;;;;;;;;;;6.11;42.87;99232.77;2121656;83;20166;-83
2022/04/02 13:31:07;;;;;;;;;;;;;;;6.21;42.24;99234.75;2110714;83;20203;-80
2022/04/02 13:34:12;;;;;;;;;;;;;;;6.32;41.38;99232.81;2114057;83;20473;-85
2022/04/02 13:37:23;;;;;;;;;;;;;;;6.36;40.31;99241.53;2108577;83;20392;-79
2022/04/02 13:40:24;;;;;;;;;;;;;;;6.49;40.96;99237.13;2109507;83;20164;-78
2022/04/02 13:43:34;;;;;;;;;;;;;;;6.53;40.91;99245.03;2110817;83;20478;-80
2022/04/02 13:46:43;;;;;;;;;;;;;;;6.56;39.99;99249.16;2112247;83;20140;-80
2022/04/02 13:49:50;;;;;;;;;;;;;;;6.62;39.04;99244.58;2109388;83;20157;-79
2022/04/02 13:52:58;;;;;;;;;;;;;;;6.68;39.71;99248.70;2111936;83;20124;-81
2022/04/02 13:56:03;;;;;;;;;;;;;;;6.66;38.39;99251.98;2111493;83;20154;-82
2022/04/02 13:59:06;;;;;;;;;;;;;;;6.77;39.90;99249.53;2105628;83;20125;-79
2022/04/02 14:02:08;;;;;;;;;;;;;;;7.03;38.33;99261.73;2114284;82;20133;-79
2022/04/02 14:05:28;;;;;;;;;;;;;;;7.03;36.29;99254.64;2111061;83;20185;-81
2022/04/02 14:08:35;;;;;;;;;;;;;;;6.91;34.74;99260.75;2113792;83;20173;-79
2022/04/02 14:11:39;;;;;;;;;;;;;;;6.83;36.55;99268.64;2106110;83;20158;-79
2022/04/02 14:14:59;;;;;;;;;;;;;;;6.78;35.71;99266.98;2113823;83;20142;-79
2022/04/02 14:18:03;;;;;;;;;;;;;;;6.76;35.84;99269.45;2113675;83;20164;-80
2022/04/02 14:21:11;;;;;;;;;;;;;;;6.67;34.18;99268.62;2111683;83;20156;-80
2022/04/02 14:24:22;;;;;;;;;;;;;;;6.58;34.01;99259.05;2111150;83;20135;-77
2022/04/02 14:27:45;;;;;;;;;;;;;;;6.62;35.33;99271.77;2112755;83;20176;-79
2022/04/02 14:31:19;;;;;;;;;;;;;;;6.70;34.34;99274.41;2104135;83;20169;-80
2022/04/02 14:34:42;;;;;;;;;;;;;;;6.76;34.57;99269.45;2101792;83;20181;-81
2022/04/02 14:38:02;;;;;;;;;;;;;;;6.68;34.44;99279.02;2103997;83;20138;-80
2022/04/02 14:41:21;;;;;;;;;;;;;;;6.65;34.51;99281.98;2104504;83;20491;-79
2022/04/02 14:44:52;;;;;;;;;;;;;;;6.65;33.21;99275.39;2106177;83;20147;-78
2022/04/02 14:48:32;;;;;;;;;;;;;;;6.66;34.09;99284.11;2097649;84;20138;-79
2022/04/02 14:52:12;;;;;;;;;;;;;;;6.69;34.78;99288.56;2102641;83;20126;-81
2022/04/02 14:55:23;;;;;;;;;;;;;;;6.69;34.73;99285.92;2002824;88;20193;-79
2022/04/02 14:58:52;;;;;;;;;;;;;;;6.68;33.37;99290.06;2000777;84;20118;-79
2022/04/02 15:02:13;;;;;;;;;;;;;;;6.68;35.08;99296.66;2102432;83;20164;-81
2022/04/02 15:05:33;;;;;;;;;;;;;;;6.61;34.22;99296.45;2103396;83;20174;-82
2022/04/02 15:08:57;;;;;;;;;;;;;;;6.54;33.45;99285.42;2101260;83;20482;-80
2022/04/02 15:12:06;;;;;;;;;;;;;;;6.44;34.24;99298.72;2101065;83;20278;-79
2022/04/02 15:15:09;;;;;;;;;;;;;;;6.36;33.12;99294.23;2103474;83;20214;-81
2022/04/02 15:18:13;;;;;;;;;;;;;;;6.32;32.69;99288.97;2103359;83;20189;-79
2022/04/02 15:21:14;;;;;;;;;;;;;;;6.32;34.20;99290.78;2101992;83;20146;-81
2022/04/02 15:24:19;;;;;;;;;;;;;;;6.33;34.27;99292.42;2104354;83;20452;-78
2022/04/02 15:27:41;;;;;;;;;;;;;;;6.27;33.72;99305.23;2102472;83;20142;-83
2022/04/02 15:30:47;;;;;;;;;;;;;;;6.20;34.65;99304.23;2104252;83;20465;-78
2022/04/02 15:33:52;;;;;;;;;;;;;;;6.18;32.92;99291.71;2105787;83;20130;-78
2022/04/02 15:37:08;;;;;;;;;;;;;;;6.15;34.24;99300.43;2102976;84;20162;-80
2022/04/02 15:40:24;;;;;;;;;;;;;;;6.13;34.41;99300.58;2102882;84;20126;-79
2022/04/02 15:43:27;;;;;;;;;;;;;;;6.08;34.52;99308.12;2107967;83;20198;-78
2022/04/02 15:46:32;;;;;;;;;;;;;;;6.06;34.86;99316.20;2109358;83;20164;-79
2022/04/02 15:49:34;;;;;;;;;;;;;;;6.02;34.77;99313.52;2106447;83;20508;-81
2022/04/02 15:52:35;;;;;;;;;;;;;;;5.99;34.62;99324.38;2109234;83;20122;-81
2022/04/02 15:55:53;;;;;;;;;;;;;;;5.94;35.44;99325.83;2109394;83;20170;-79
2022/04/02 15:59:10;;;;;;;;;;;;;;;5.94;35.15;99325.83;2111031;83;20184;-81
2022/04/02 16:02:46;;;;;;;;;;;;;;;5.89;34.18;99328.09;2105301;84;20133;-76
2022/04/02 16:05:47;;;;;;;;;;;;;;;5.83;35.27;99342.20;2029966;86;20177;-78
2022/04/02 16:08:55;;;;;;;;;;;;;;;5.76;34.84;99342.48;2037031;86;20180;-78
2022/04/02 16:11:56;;;;;;;;;;;;;;;5.69;34.55;99348.04;2106931;83;20142;-79
2022/04/02 16:15:25;;;;;;;;;;;;;;;5.66;34.75;99353.61;2108704;83;20143;-77
2022/04/02 16:18:28;;;;;;;;;;;;;;;5.61;35.47;99355.38;2106046;84;20156;-79
2022/04/02 16:21:30;;;;;;;;;;;;;;;5.57;35.40;99365.04;2106206;84;20134;-79
2022/04/02 16:24:31;;;;;;;;;;;;;;;5.52;35.40;99362.03;2108165;84;20543;-78
2022/04/02 16:27:32;;;;;;;;;;;;;;;5.45;34.97;99368.90;2105319;84;20139;-80